Latest Coastal Weather Observations for Edithburgh

IDS60701

Issued at 6:51 pm CST Saturday 19 August 2017 (issued every 10 minutes, with the page automatically refreshed every 10 minutes)

About coastal observations | Map of coastal stations | Coastal observations for SA | Marine services | Other Formats
Station Details ID: 022046 Name: EDITHBURGH Lat: -35.11 Lon: 137.74 Height: 6.0 m
Data from the previous 72 hours. | See also: Recent months at Edithburgh
Date/Time
CST
Temp
°C
Wind Pressure Rain since
9am
mm
Weather Cloud Vis
km
Sea
Height
m
Swell
Dir  Spd
kts
Gust
kts
hPa Trend Height
m
Period
s
Dir
19/06:30pm 9.0 SE 3 3 1027.6 - 0.0 - - - - - - -
19/06:00pm 9.6 NE 2 2 1027.9 - 0.0 - - - - - - -
19/05:30pm 11.2 CALM 0 0 1028.0 - 0.0 - - - - - - -
19/05:00pm 11.8 E 2 3 1027.9 - 0.0 - - - - - - -
19/04:30pm 12.2 SE 3 4 1027.8 - 0.0 - - - - - - -
19/04:00pm 12.6 ENE 3 4 1027.7 - 0.0 - - - - - - -
19/03:30pm 12.7 NE 4 6 1027.7 - 0.0 - - - - - - -
19/03:00pm 13.0 E 4 5 1027.7 - 0.0 - - - - - - -
19/02:30pm 12.8 SSE 4 5 1028.0 - 0.0 - - - - - - -
19/02:00pm 12.5 SE 4 7 1028.3 - 0.0 - - - - - - -
19/01:30pm 12.9 SE 5 7 1028.6 - 0.0 - - - - - - -
19/01:00pm 12.9 SE 4 6 1029.0 - 0.0 - - - - - - -
19/12:30pm 13.2 ESE 4 6 1029.5 - 0.0 - - - - - - -
19/12:00pm 12.7 SE 5 7 1029.7 - 0.0 - - - - - - -
19/11:30am 12.6 SE 7 9 1030.0 - 0.0 - - - - - - -
19/11:00am 12.7 SSE 7 9 1030.3 - 0.0 - - - - - - -
19/10:30am 13.1 SSE 7 10 1030.4 - 0.0 - - - - - - -
19/10:00am 12.9 SSE 6 8 1030.4 - 0.0 - - - - - - -
19/09:30am 12.7 S 5 7 1030.5 - 0.0 - - - - - - -
19/09:00am 12.7 S 6 8 1030.4 - 0.6 - - - - - - -
19/08:30am 12.3 S 6 7 1030.0 - 0.6 - - - - - - -
19/08:00am 11.4 S 5 7 1029.7 - 0.6 - - - - - - -
19/07:30am 8.8 SSW 5 5 1029.3 - 0.6 - - - - - - -
19/07:00am 8.2 SW 6 7 1028.9 - 0.6 - - - - - - -
19/06:30am 9.3 SSW 7 9 1028.6 - 0.6 - - - - - - -
19/06:00am 8.3 SW 4 7 1028.3 - 0.6 - - - - - - -
19/05:30am 9.2 SSW 6 10 1028.0 - 0.6 - - - - - - -
19/05:00am 9.1 SSW 6 9 1027.9 - 0.6 - - - - - - -
19/04:30am 8.9 SSW 6 7 1027.6 - 0.6 - - - - - - -
19/04:00am 9.1 SSW 7 8 1027.3 - 0.6 - - - - - - -
19/03:30am 9.3 SSW 7 8 1027.3 - 0.6 - - - - - - -
19/03:00am 9.8 SSW 8 10 1027.2 - 0.6 - - - - - - -
19/02:30am 10.1 SSW 8 11 1027.3 - 0.6 - - - - - - -
19/02:00am 10.2 SW 8 12 1027.3 - 0.6 - - - - - - -
19/01:30am 10.5 SSW 9 12 1027.2 - 0.6 - - - - - - -
19/01:00am 10.5 SSW 9 12 1027.2 - 0.6 - - - - - - -
19/12:30am 10.5 SSW 10 13 1027.2 - 0.6 - - - - - - -
19/12:00am 10.6 SW 10 14 1027.2 - 0.6 - - - - - - -
 
Date/Time
CST
Temp
°C
Wind Pressure Rain since
9am
mm
Weather Cloud Vis
km
Sea
Height
m
Swell
Dir  Spd
kts
Gust
kts
hPa Trend Height
m
Period
s
Dir
18/11:30pm 10.5 SW 9 12 1027.3 - 0.6 - - - - - - -
18/11:00pm 10.7 SW 9 13 1027.3 - 0.6 - - - - - - -
18/10:30pm 10.5 SW 9 13 1027.1 - 0.6 - - - - - - -
18/10:00pm 10.3 SW 8 11 1027.1 - 0.6 - - - - - - -
18/09:30pm 10.5 SW 8 12 1027.1 - 0.6 - - - - - - -
18/09:00pm 10.8 SSW 11 15 1027.0 - 0.6 - - - - - - -
18/08:30pm 10.6 SW 8 11 1026.8 - 0.6 - - - - - - -
18/08:00pm 10.8 SW 9 13 1026.4 - 0.6 - - - - - - -
18/07:30pm 11.4 SW 11 16 1026.3 - 0.6 - - - - - - -
18/07:00pm 11.2 WSW 8 13 1026.0 - 0.6 - - - - - - -
18/06:30pm 10.4 WSW 6 8 1025.7 - 0.6 - - - - - - -
18/06:00pm 11.3 WSW 9 13 1025.3 - 0.6 - - - - - - -
18/05:30pm 11.4 WSW 10 15 1025.0 - 0.6 - - - - - - -
18/05:00pm 12.4 WSW 12 18 1024.5 - 0.6 - - - - - - -
18/04:30pm 13.1 WSW 11 15 1024.2 - 0.6 - - - - - - -
18/04:00pm 13.5 WSW 13 20 1024.0 - 0.6 - - - - - - -
18/03:30pm 13.4 WSW 15 19 1024.0 - 0.6 - - - - - - -
18/03:00pm 13.6 WSW 12 18 1023.9 - 0.6 - - - - - - -
18/02:30pm 13.3 WSW 16 24 1023.6 - 0.6 - - - - - - -
18/02:00pm 12.1 WSW 15 21 1023.6 - 0.6 - - - - - - -
18/01:30pm 13.7 WSW 12 19 1023.4 - 0.6 - - - - - - -
18/01:00pm 12.9 SW 12 19 1023.6 - 0.6 - - - - - - -
18/12:33pm 12.6 WSW 15 25 1023.6 - 0.2 - - - - - - -
18/12:30pm 13.5 WSW 14 20 1023.6 - 0.2 - - - - - - -
18/12:00pm 12.7 WSW 15 23 1023.7 - 0.2 - - - - - - -
18/11:33am 13.4 WSW 16 27 1023.5 - 0.2 - - - - - - -
18/11:30am 13.3 WSW 16 21 1023.5 - 0.2 - - - - - - -
18/11:06am 11.2 W 17 28 1023.5 - 0.2 - - - - - - -
18/11:00am 11.5 WSW 18 28 1023.5 - 0.2 - - - - - - -
18/10:56am 13.3 WSW 15 26 1023.3 - 0.2 - - - - - - -
18/10:30am 12.2 WSW 11 20 1023.2 - 0.2 - - - - - - -
18/10:18am 10.9 SW 16 26 1023.2 - 0.2 - - - - - - -
18/10:09am 10.5 WSW 15 27 1023.1 - 0.2 - - - - - - -
18/10:00am 12.1 WSW 10 16 1022.9 - 0.2 - - - - - - -
18/09:30am 11.8 SW 15 21 1022.4 - 0.0 - - - - - - -
18/09:15am 12.1 SW 15 25 1022.2 - 0.0 - - - - - - -
18/09:00am 11.0 SW 13 22 1022.0 - 6.0 - - - - - - -
18/08:30am 11.4 WSW 12 20 1021.6 - 6.0 - - - - - - -
18/08:00am 10.4 SW 14 20 1020.9 - 6.0 - - - - - - -
18/07:33am 9.6 SW 15 25 1020.4 - 6.0 - - - - - - -
18/07:30am 9.5 SW 16 25 1020.4 - 6.0 - - - - - - -
18/07:15am 10.6 SW 15 27 1020.0 - 5.8 - - - - - - -
18/07:00am 10.0 WSW 11 16 1019.7 - 5.8 - - - - - - -
18/06:30am 10.0 WSW 13 28 1019.1 - 5.8 - - - - - - -
18/06:26am 9.5 W 10 28 1019.1 - 5.8 - - - - - - -
18/06:00am 9.9 WSW 9 18 1018.7 - 5.8 - - - - - - -
18/05:30am 9.2 W 12 19 1018.2 - 5.8 - - - - - - -
18/05:00am 9.1 WSW 17 22 1018.1 - 5.8 - - - - - - -
18/04:30am 9.2 WSW 9 15 1017.2 - 5.0 - - - - - - -
18/04:06am 9.8 WSW 13 23 1017.0 - 4.8 - - - - - - -
18/04:00am 9.5 WSW 8 13 1016.8 - 4.6 - - - - - - -
18/03:30am 9.3 W 8 12 1016.5 - 4.6 - - - - - - -
18/03:00am 8.7 WSW 12 18 1016.4 - 4.4 Recent precip. - - - - - -
18/02:30am 8.8 W 10 16 1016.2 - 4.2 - - - - - - -
18/02:00am 9.6 WSW 14 21 1016.1 - 4.0 - - - - - - -
18/01:30am 9.6 WSW 17 24 1015.9 - 4.0 - - - - - - -
18/01:00am 8.3 W 13 20 1015.4 - 3.8 - - - - - - -
18/12:43am 8.8 W 15 30 1015.8 - 3.6 - - - - - - -
18/12:30am 9.1 W 16 24 1015.3 - 3.4 - - - - - - -
18/12:09am 9.4 W 16 28 1015.4 - 3.4 - - - - - - -
18/12:00am 9.8 W 15 22 1014.7 - 3.2 - - - - - - -
 
Date/Time
CST
Temp
°C
Wind Pressure Rain since
9am
mm
Weather Cloud Vis
km
Sea
Height
m
Swell
Dir  Spd
kts
Gust
kts
hPa Trend Height
m
Period
s
Dir
17/11:30pm 9.7 W 16 23 1014.4 - 3.2 - - - - - - -
17/11:16pm 9.5 WNW 15 26 1014.2 - 3.2 - - - - - - -
17/11:00pm 8.5 WNW 11 15 1014.1 - 3.2 - - - - - - -
17/10:30pm 8.0 WNW 10 13 1013.8 - 3.2 - - - - - - -
17/10:17pm 8.6 W 13 16 1013.7 - 3.2 - - - - - - -
17/10:00pm 8.1 WSW 19 32 1013.6 - 3.2 - - - - - - -
17/09:57pm 9.6 W 17 32 1013.9 - 3.0 - - - - - - -
17/09:36pm 9.9 WNW 18 29 1013.1 - 2.4 - - - - - - -
17/09:30pm 10.0 WNW 16 25 1013.2 - 2.4 - - - - - - -
17/09:26pm 10.0 WNW 15 25 1013.0 - 2.4 - - - - - - -
17/09:00pm 9.8 W 14 24 1013.0 - 2.4 - - - - - - -
17/08:30pm 8.7 WNW 10 16 1012.7 - 2.4 - - - - - - -
17/08:00pm 8.8 WNW 14 20 1012.4 - 2.4 - - - - - - -
17/07:37pm 9.7 WNW 20 31 1011.4 - 2.4 - - - - - - -
17/07:30pm 9.8 WNW 19 26 1011.9 - 2.4 - - - - - - -
17/07:00pm 11.0 W 21 29 1011.2 - 2.4 - - - - - - -
17/06:48pm 11.1 W 20 31 1010.9 - 2.4 - - - - - - -
17/06:30pm 10.7 W 17 22 1010.7 - 2.4 - - - - - - -
17/06:05pm 11.4 WNW 20 34 1010.2 - 2.4 - - - - - - -
17/06:00pm 11.5 WNW 19 27 1010.3 - 2.4 - - - - - - -
17/05:47pm 11.3 WNW 17 28 1010.0 - 2.4 - - - - - - -
17/05:30pm 11.4 WNW 21 28 1009.7 - 2.4 - - - - - - -
17/05:00pm 12.2 WNW 19 29 1009.1 - 2.4 - - - - - - -
17/04:30pm 12.8 WNW 21 32 1008.8 - 2.4 - - - - - - -
17/04:04pm 12.4 WNW 19 29 1008.7 - 2.4 - - - - - - -
17/04:00pm 12.4 WNW 20 29 1008.5 - 2.4 - - - - - - -
17/03:39pm 12.5 WNW 18 28 1008.5 - 2.4 - - - - - - -
17/03:30pm 12.5 WNW 20 28 1008.2 - 2.4 - - - - - - -
17/03:00pm 12.1 W 20 26 1008.5 - 2.4 Recent precip. - - - - - -
17/02:49pm 11.3 W 19 30 1008.3 - 2.4 - - - - - - -
17/02:36pm 9.6 W 29 49 1008.7 - 2.4 - - - - - - -
17/02:30pm 9.3 W 26 49 1008.3 - 2.4 - - - - - - -
17/02:28pm 11.9 W 23 49 1008.2 - 1.6 - - - - - - -
17/02:07pm 13.5 W 17 34 1007.7 - 1.6 - - - - - - -
17/02:00pm 13.7 WNW 16 21 1007.6 - 1.6 - - - - - - -
17/01:30pm 11.5 W 17 24 1007.9 - 1.6 - - - - - - -
17/01:00pm 10.4 W 19 31 1007.7 - 1.6 - - - - - - -
17/12:58pm 10.4 W 21 36 1007.7 - 1.6 - - - - - - -
17/12:30pm 15.4 WNW 21 33 1007.0 - 0.0 - - - - - - -
17/12:04pm 13.7 WNW 21 31 1007.6 - 0.0 - - - - - - -
17/12:00pm 14.7 WNW 23 31 1007.4 - 0.0 - - - - - - -
17/11:32am 14.4 WNW 23 34 1007.5 - 0.0 - - - - - - -
17/11:30am 14.3 WNW 24 34 1007.4 - 0.0 - - - - - - -
17/11:00am 14.9 WNW 22 30 1007.5 - 0.0 - - - - - - -
17/10:41am 14.6 WNW 21 31 1007.4 - 0.0 - - - - - - -
17/10:30am 14.5 WNW 21 28 1007.5 - 0.0 - - - - - - -
17/10:00am 13.9 WNW 23 28 1007.3 - 0.0 - - - - - - -
17/09:30am 13.6 NW 15 22 1007.2 - 0.0 - - - - - - -
17/09:00am 12.5 NW 14 18 1007.5 - 6.2 - - - - - - -
17/08:30am 10.7 WNW 12 16 1007.4 - 6.2 - - - - - - -
17/08:00am 10.0 NW 21 31 1007.1 - 6.2 - - - - - - -
17/07:51am 11.3 NW 15 27 1007.1 - 6.0 - - - - - - -
17/07:30am 9.7 NW 9 12 1006.8 - 6.0 - - - - - - -
17/07:00am 10.0 WNW 13 16 1006.6 - 6.0 - - - - - - -
17/06:30am 10.6 WNW 11 15 1006.4 - 6.0 - - - - - - -
17/06:00am 10.3 WNW 10 13 1006.0 - 6.0 - - - - - - -
17/05:30am 10.5 WNW 12 15 1005.8 - 6.0 - - - - - - -
17/05:00am 10.8 WNW 10 14 1005.7 - 6.0 - - - - - - -
17/04:30am 10.6 WNW 9 12 1005.7 - 6.0 - - - - - - -
17/04:00am 10.8 WNW 12 19 1005.6 - 6.0 - - - - - - -
17/03:30am 10.9 WNW 16 25 1005.5 - 3.6 - - - - - - -
17/03:00am 11.4 NW 17 24 1005.2 - 3.6 Recent precip. - - - - - -
17/02:30am 11.3 NW 13 17 1005.4 - 3.6 - - - - - - -
17/02:00am 11.5 NW 17 25 1005.8 - 3.4 - - - - - - -
17/01:30am 11.6 NW 17 23 1005.7 - 2.8 - - - - - - -
17/01:00am 11.8 NW 16 21 1006.0 - 2.8 - - - - - - -
17/12:30am 11.6 NW 16 21 1006.2 - 2.8 - - - - - - -
17/12:00am 11.4 NW 14 18 1006.4 - 2.8 - - - - - - -
 
Date/Time
CST
Temp
°C
Wind Pressure Rain since
9am
mm
Weather Cloud Vis
km
Sea
Height
m
Swell
Dir  Spd
kts
Gust
kts
hPa Trend Height
m
Period
s
Dir
16/11:30pm 11.7 NW 15 19 1006.7 - 2.8 - - - - - - -
16/11:00pm 11.9 NW 17 21 1006.9 - 2.8 - - - - - - -
16/10:30pm 11.2 NW 9 12 1007.3 - 2.8 - - - - - - -
16/10:00pm 11.4 NW 11 15 1007.4 - 2.8 - - - - - - -
16/09:30pm 11.8 WNW 12 15 1007.7 - 1.4 - - - - - - -
16/09:00pm 12.1 NW 14 20 1007.5 - 1.4 Recent precip. - - - - - -
16/08:30pm 12.2 NW 19 26 1007.0 - 1.4 - - - - - - -
16/08:00pm 12.1 NW 21 28 1006.7 - 1.2 - - - - - - -
16/07:40pm 12.2 NW 20 31 1006.8 - 1.2 - - - - - - -
16/07:30pm 12.1 NW 20 27 1006.7 - 1.0 - - - - - - -
16/07:00pm 12.2 NW 19 25 1006.2 - 1.0 - - - - - - -

Other Formats:

Comma delimited format used in spreadsheet applications
http://www.bom.gov.au/fwo/IDS60701/IDS60701.94809.axf

JavaScript Object Notation format (JSON) in row-major order
http://www.bom.gov.au/fwo/IDS60701/IDS60701.94809.json